Aérodrome :
LOGIN :

S'inscrire | Disclaimer

   EN    FR    IT 

 










Légende :    VFR   VFR Marginal   IFR   IFR Intensif   IFR Très Intensif
Visi : 
Plafond : 
>= 8 km
>= 3000ft
5 à 8 km
1000 à 3000 ft
1500m à 5 km
500 à 1000 ft
800 à 1500m
200 à 500 ft
< 800m
< 200 ft
Symboles :   Orages  Brouillard  Fortes neiges  Fortes précipitations  Vent > 20 kt
SIGMETs :   Divers  Orages  Givrage  Turbulence  Onde Orograph.  Cendres Volcan.







- Altitude de l'aérodrome : 87 ft
- Code IATA : FSC
- Voir les cartes d'approche


LFKF - Figari

DERNIER METAR :
  • 230000Z AUTO 29017G36KT 250V330 9999 FEW045 BKN056 OVC066 17/07 Q1014

METARs EXPIRÉS :
  • 222330Z AUTO 29018G33KT 260V320 9999 BKN048 BKN054 OVC068 17/06 Q1014
  • 222300Z AUTO 29018G38KT 260V330 9999 BKN048 BKN054 OVC064 17/06 Q1014
  • 222230Z AUTO 30017G33KT 250V330 9999 FEW042 SCT048 OVC056 17/06 Q1013
  • 222200Z AUTO 29023G41KT 9999 FEW040 SCT047 OVC056 18/07 Q1013
  • 222130Z AUTO 29024G38KT 270V330 9999 BKN047 OVC058 18/05 Q1013 NOSIG

TAF TAF LFKF
Valide du 22 à 15h jusqu'au 23 à 15h UTC


221400Z 2215/2315 27023G35KT 9999 FEW025
BECMG 2306/2309 30010KT
Pas de NOTAMs connus pour ce terrain.
2 SIGMETs publiés pour la FIR Marseille (LFMM) :
 
Turbulence forte
LFMM SIGMET 18 VALID 222300/230300 LFPW
LFMM MARSEILLE FIR/UIR SEV TURB FCST WI N4200 E00945 - N4115 E00945 - N4115 E00800 - N4015 E00800 - N4345 E00430 - N4400 E00645 SFC/FL060 MOV S 15KT NC=
Turbulence forte
LFMM SIGMET 17 VALID 222300/230300 LFPW
LFMM MARSEILLE FIR/UIR SEV TURB FCST WI N4630 E00515 - N4630 E00700 - N4400 E00700 - N4345 E00815 - N4315 E00700 FL220/320 MOV E 15KT NC=



MET'MAP, la Météo Aéronautique d'un coup d'oeil ! - Copyright ORBIFLY Décembre 2007 - Disclaimer

ORBIFLY MET'MAP TEAM :

Programmation & Développement : Alexandra Zaïnal
Conception & Développement : Baudouin d'Aumeries
Co-Programmation & Développement : Marc-Olivier Méhu
Soutien technique & logistique : Manuel Goepfert

Contact : metmap@orbifly.com




SOURCES & CREDITS :

   NOAA